Terminal Aerodrome Forecast
Issued by NWS

Home | Current Version | Previous Version | Text Only | Print | Product List | Glossary On
Versions: 1 2 3 4 5 6 7 8 9 10 11 12 13 14
000
FTUS45 KTFX 231733
TAFHLN
TAF
KHLN 231733Z 2318/2418 33009KT P6SM VCSH SCT025 OVC040
      TEMPO 2318/2321 5SM -SN OVC050
     FM232100 34010KT 5SM -SHSN SCT030 BKN045
     FM240200 VRB05KT P6SM SCT030 OVC050
     FM240700 VRB04KT 5SM BR OVC040=

USA.gov is the U.S. government's official web portal to all federal, state and local government web resources and services.